createdAt,value
2018-09-06T00:01:56.245Z,72.50
2018-09-06T00:04:24.565Z,72.70
2018-09-06T00:06:52.947Z,72.90
2018-09-06T00:09:21.270Z,72.80
2018-09-06T00:11:49.618Z,72.80
2018-09-06T00:14:17.934Z,72.90
2018-09-06T00:16:46.276Z,72.90
2018-09-06T00:19:14.594Z,72.90
2018-09-06T00:21:42.922Z,73.00
2018-09-06T00:24:11.271Z,73.20
2018-09-06T00:26:39.620Z,73.00
2018-09-06T00:29:07.987Z,73.20
2018-09-06T00:31:36.342Z,73.40
2018-09-06T00:34:04.661Z,73.70
2018-09-06T00:36:33.000Z,73.80
2018-09-06T00:39:01.315Z,74.00
2018-09-06T00:41:29.654Z,74.10
2018-09-06T00:43:57.979Z,74.90
2018-09-06T00:46:26.338Z,74.30
2018-09-06T00:48:54.657Z,74.40
2018-09-06T00:51:22.994Z,74.60
2018-09-06T00:53:51.311Z,74.60
2018-09-06T00:56:19.636Z,74.80
2018-09-06T00:58:48.018Z,75.00
2018-09-06T01:01:16.361Z,75.10
2018-09-06T01:03:44.682Z,75.40
2018-09-06T01:06:13.026Z,75.40
2018-09-06T01:08:41.378Z,76.20
2018-09-06T01:11:09.705Z,75.60
2018-09-06T01:13:38.025Z,75.70
2018-09-06T01:16:06.489Z,75.50
2018-09-06T01:18:35.124Z,75.70
2018-09-06T01:21:03.463Z,75.70
2018-09-06T01:23:31.789Z,75.80
2018-09-06T01:26:00.149Z,75.90
2018-09-06T01:28:28.480Z,75.90
2018-09-06T01:30:56.833Z,76.00
2018-09-06T01:33:25.159Z,76.20
2018-09-06T01:35:58.671Z,76.30
2018-09-06T01:38:27.032Z,76.30
2018-09-06T01:40:55.385Z,76.30
2018-09-06T01:43:23.689Z,76.60
2018-09-06T01:45:52.021Z,76.70
2018-09-06T01:48:20.345Z,77.00
2018-09-06T01:50:48.680Z,77.10
2018-09-06T01:53:16.991Z,77.10
2018-09-06T01:55:45.322Z,77.20
2018-09-06T01:58:13.629Z,77.40
2018-09-06T02:00:41.976Z,77.40
2018-09-06T02:03:10.303Z,77.30
2018-09-06T02:05:38.721Z,77.50
2018-09-06T02:08:08.114Z,77.50
2018-09-06T02:10:36.569Z,77.60
2018-09-06T02:13:04.908Z,77.80
2018-09-06T02:15:33.542Z,77.90
2018-09-06T02:18:01.906Z,77.80
2018-09-06T02:20:30.283Z,78.40
2018-09-06T02:22:58.613Z,77.90
2018-09-06T02:25:26.971Z,77.80
2018-09-06T02:27:55.304Z,77.70
2018-09-06T02:30:23.620Z,77.70
2018-09-06T02:32:51.970Z,77.80
2018-09-06T02:35:20.282Z,78.10
2018-09-06T02:37:48.604Z,78.00
2018-09-06T02:40:22.321Z,78.10
2018-09-06T02:42:50.677Z,78.00
2018-09-06T02:45:19.075Z,78.00
2018-09-06T02:47:52.991Z,78.10
2018-09-06T02:50:26.625Z,78.00
2018-09-06T02:52:55.421Z,77.90
2018-09-06T02:55:24.603Z,78.10
2018-09-06T02:57:52.931Z,78.30
2018-09-06T03:00:26.362Z,78.60
2018-09-06T03:02:54.696Z,78.90
2018-09-06T03:05:24.057Z,78.00
2018-09-06T03:07:52.934Z,78.00
2018-09-06T03:10:21.966Z,78.70
2018-09-06T03:12:50.495Z,78.10
2018-09-06T03:15:18.829Z,78.40
2018-09-06T03:17:47.194Z,78.40
2018-09-06T03:20:15.913Z,78.30
2018-09-06T03:22:44.254Z,78.00
2018-09-06T03:25:12.564Z,78.00
2018-09-06T03:27:40.893Z,77.80
2018-09-06T03:30:09.197Z,77.90
2018-09-06T03:32:37.526Z,77.70
2018-09-06T03:35:05.843Z,77.60
2018-09-06T03:37:34.180Z,77.60
2018-09-06T03:40:02.501Z,77.50
2018-09-06T03:42:30.846Z,77.50
2018-09-06T03:44:59.162Z,77.50
2018-09-06T03:47:27.911Z,77.50
2018-09-06T03:49:56.231Z,77.30
2018-09-06T03:52:24.585Z,77.30
2018-09-06T03:54:52.907Z,77.30
2018-09-06T03:57:21.240Z,77.40
2018-09-06T03:59:49.555Z,77.50
2018-09-06T04:02:17.891Z,77.70
2018-09-06T04:04:46.207Z,77.80
2018-09-06T04:07:14.548Z,77.80
2018-09-06T04:09:42.861Z,77.80
2018-09-06T04:12:11.181Z,77.70
2018-09-06T04:14:39.497Z,77.70
2018-09-06T04:17:07.841Z,77.80
2018-09-06T04:19:36.141Z,77.80
2018-09-06T04:22:04.478Z,77.80
2018-09-06T04:24:32.834Z,78.00
2018-09-06T04:27:01.162Z,78.20
2018-09-06T04:29:29.506Z,78.50
2018-09-06T04:31:57.858Z,78.50
2018-09-06T04:34:26.189Z,78.60
2018-09-06T04:36:54.521Z,78.60
2018-09-06T04:39:22.846Z,79.00
2018-09-06T04:41:51.205Z,79.10
2018-09-06T04:44:19.505Z,79.10
2018-09-06T04:46:50.390Z,79.30
2018-09-06T04:49:18.929Z,79.70
2018-09-06T04:51:47.800Z,80.00
2018-09-06T04:54:16.205Z,79.70
2018-09-06T04:56:44.617Z,79.80
2018-09-06T04:59:12.956Z,80.00
2018-09-06T05:01:41.401Z,81.00
2018-09-06T05:04:09.793Z,80.00
2018-09-06T05:06:38.062Z,79.80
2018-09-06T05:09:08.394Z,79.70
2018-09-06T05:11:40.721Z,79.80
2018-09-06T05:14:09.089Z,80.10
2018-09-06T05:16:37.784Z,80.20
2018-09-06T05:19:06.105Z,80.50
2018-09-06T05:21:34.431Z,80.80
2018-09-06T05:24:02.753Z,80.90
2018-09-06T05:26:31.075Z,80.90
2018-09-06T05:28:59.407Z,81.20
2018-09-06T05:31:27.729Z,81.40
2018-09-06T05:33:56.058Z,81.80
2018-09-06T05:36:24.403Z,81.90
2018-09-06T05:38:52.726Z,82.10
2018-09-06T05:41:21.034Z,82.20
2018-09-06T05:43:49.385Z,82.70
2018-09-06T05:46:17.737Z,83.20
2018-09-06T05:48:46.089Z,83.60
2018-09-06T05:51:14.420Z,84.10
2018-09-06T05:53:42.760Z,84.50
2018-09-06T05:56:11.071Z,85.10
2018-09-06T05:58:39.415Z,85.30
2018-09-06T06:01:07.720Z,85.60
2018-09-06T06:03:36.058Z,85.80
2018-09-06T06:06:04.367Z,86.00
2018-09-06T06:08:39.953Z,86.00
2018-09-06T06:11:08.389Z,86.20
2018-09-06T06:13:36.754Z,86.20
2018-09-06T06:16:05.078Z,86.30
2018-09-06T06:18:33.418Z,86.30
2018-09-06T06:21:01.717Z,86.50
2018-09-06T06:23:30.190Z,86.50
2018-09-06T06:25:58.574Z,86.30
2018-09-06T06:28:26.999Z,86.40
2018-09-06T06:30:55.315Z,86.50
2018-09-06T06:33:23.646Z,86.30
2018-09-06T06:35:51.956Z,86.10
2018-09-06T06:38:20.308Z,86.20
2018-09-06T06:40:48.620Z,86.10
2018-09-06T06:43:16.965Z,85.90
2018-09-06T06:45:45.269Z,85.80
2018-09-06T06:48:13.605Z,85.50
2018-09-06T06:50:41.944Z,85.30
2018-09-06T06:53:10.261Z,85.30
2018-09-06T06:55:38.578Z,84.80
2018-09-06T06:58:06.942Z,84.70
2018-09-06T07:00:41.368Z,84.70
2018-09-06T07:03:10.800Z,84.70
2018-09-06T07:05:40.697Z,84.70
2018-09-06T07:08:09.564Z,84.60
2018-09-06T07:10:37.913Z,84.70
2018-09-06T07:13:06.454Z,84.60
2018-09-06T07:15:34.779Z,84.40
2018-09-06T07:18:03.123Z,85.10
2018-09-06T07:20:31.467Z,84.40
2018-09-06T07:22:59.824Z,84.10
2018-09-06T07:25:28.519Z,84.00
2018-09-06T07:27:56.836Z,83.80
2018-09-06T07:30:25.212Z,83.40
2018-09-06T07:32:53.553Z,83.20
2018-09-06T07:35:21.911Z,83.20
2018-09-06T07:37:50.241Z,83.10
2018-09-06T07:40:18.586Z,82.90
2018-09-06T07:42:46.899Z,83.00
2018-09-06T07:45:15.243Z,82.80
2018-09-06T07:47:43.567Z,82.50
2018-09-06T07:50:11.989Z,82.20
2018-09-06T07:52:40.277Z,81.80
2018-09-06T07:55:08.629Z,81.60
2018-09-06T07:57:36.947Z,81.40
2018-09-06T08:00:05.826Z,81.60
2018-09-06T08:02:34.151Z,80.80
2018-09-06T08:05:02.482Z,80.50
2018-09-06T08:07:30.814Z,81.40
2018-09-06T08:09:59.141Z,79.70
2018-09-06T08:12:27.457Z,79.60
2018-09-06T08:14:55.792Z,79.60
2018-09-06T08:17:24.111Z,78.50
2018-09-06T08:19:52.487Z,78.40
2018-09-06T08:22:20.802Z,78.00
2018-09-06T08:24:49.136Z,78.30
2018-09-06T08:27:17.450Z,77.70
2018-09-06T08:29:45.786Z,76.60
2018-09-06T08:32:14.157Z,76.20
2018-09-06T08:34:42.494Z,76.00
2018-09-06T08:37:10.838Z,75.80
2018-09-06T08:39:39.161Z,75.30
2018-09-06T08:42:07.487Z,74.50
2018-09-06T08:44:35.821Z,74.10
2018-09-06T08:47:04.184Z,73.60
2018-09-06T08:49:32.497Z,73.30
2018-09-06T08:52:00.892Z,73.20
2018-09-06T08:54:29.221Z,73.00
2018-09-06T08:56:57.530Z,72.70
2018-09-06T08:59:25.898Z,72.40
2018-09-06T09:01:54.210Z,72.70
2018-09-06T09:04:22.568Z,71.00
2018-09-06T09:06:50.897Z,70.60
2018-09-06T09:09:19.250Z,70.30
2018-09-06T09:11:47.575Z,70.70
2018-09-06T09:14:15.922Z,70.00
2018-09-06T09:16:44.246Z,70.30
2018-09-06T09:19:12.577Z,68.40
2018-09-06T09:21:40.991Z,68.10
2018-09-06T09:24:09.263Z,67.40
2018-09-06T09:26:37.573Z,67.50
2018-09-06T09:29:05.922Z,66.90
2018-09-06T09:31:34.310Z,66.10
2018-09-06T09:34:02.624Z,66.10
2018-09-06T09:36:30.971Z,65.80
2018-09-06T09:38:59.290Z,64.90
2018-09-06T09:41:27.621Z,64.40
2018-09-06T09:43:55.958Z,63.70
2018-09-06T09:48:51.726Z,61.80
2018-09-06T09:51:20.084Z,61.50
2018-09-06T09:53:48.408Z,61.00
2018-09-06T09:56:16.807Z,59.90
2018-09-06T09:58:45.150Z,58.80
2018-09-06T10:01:13.492Z,58.50
2018-09-06T10:03:47.247Z,58.50
2018-09-06T10:06:21.776Z,58.00
2018-09-06T10:08:55.740Z,58.00
2018-09-06T10:11:25.547Z,56.80
2018-09-06T10:13:53.884Z,56.50
2018-09-06T10:16:22.231Z,55.40
2018-09-06T10:18:50.688Z,54.80
2018-09-06T10:21:19.017Z,54.70
2018-09-06T10:23:47.348Z,54.60
2018-09-06T10:26:15.692Z,54.60
2018-09-06T10:28:44.014Z,54.30
2018-09-06T10:31:12.379Z,53.80
2018-09-06T10:33:40.785Z,53.80
2018-09-06T10:36:09.111Z,53.20
2018-09-06T10:38:37.453Z,52.00
2018-09-06T10:41:06.078Z,51.30
2018-09-06T10:43:34.402Z,50.90
2018-09-06T10:46:02.749Z,49.60
2018-09-06T10:48:31.097Z,49.40
2018-09-06T10:51:00.276Z,48.70
2018-09-06T10:53:28.600Z,48.20
2018-09-06T10:55:56.967Z,47.60
2018-09-06T10:58:25.334Z,46.70
2018-09-06T11:00:59.001Z,47.10
2018-09-06T11:03:27.379Z,47.80
2018-09-06T11:05:55.862Z,46.70
2018-09-06T11:08:24.283Z,46.50
2018-09-06T11:10:52.623Z,44.90
2018-09-06T11:13:20.934Z,45.60
2018-09-06T11:15:49.273Z,44.00
2018-09-06T11:18:17.581Z,43.40
2018-09-06T11:20:45.940Z,42.90
2018-09-06T11:23:14.323Z,43.30
2018-09-06T11:25:42.658Z,43.20
2018-09-06T11:28:10.965Z,43.60
2018-09-06T11:30:39.303Z,42.80
2018-09-06T11:33:07.681Z,42.90
2018-09-06T11:35:35.998Z,43.20
2018-09-06T11:38:04.318Z,42.90
2018-09-06T11:40:32.692Z,41.00
2018-09-06T11:43:01.003Z,40.90
2018-09-06T11:45:29.459Z,40.70
2018-09-06T11:47:57.865Z,40.50
2018-09-06T11:50:26.206Z,39.50
2018-09-06T11:52:54.508Z,39.40
2018-09-06T11:55:22.869Z,39.50
2018-09-06T11:57:51.217Z,39.10
2018-09-06T12:00:19.559Z,39.30
2018-09-06T12:02:47.869Z,39.80
2018-09-06T12:05:16.187Z,39.90
2018-09-06T12:07:44.557Z,38.90
2018-09-06T12:10:12.861Z,38.40
2018-09-06T12:12:41.199Z,38.20
2018-09-06T12:15:09.571Z,38.30
2018-09-06T12:20:12.635Z,38.30
2018-09-06T12:22:40.974Z,38.10
2018-09-06T12:25:09.300Z,38.60
2018-09-06T12:27:37.657Z,38.00
2018-09-06T12:30:05.983Z,38.30
2018-09-06T12:32:34.380Z,39.00
2018-09-06T12:35:02.663Z,38.00
2018-09-06T12:37:30.989Z,38.20
2018-09-06T12:39:59.331Z,38.70
2018-09-06T12:42:27.686Z,38.80
2018-09-06T12:44:56.025Z,38.20
2018-09-06T12:47:24.349Z,37.60
2018-09-06T12:49:52.662Z,37.30
2018-09-06T12:52:20.998Z,36.80
2018-09-06T12:54:49.317Z,37.40
2018-09-06T12:57:17.652Z,38.20
2018-09-06T12:59:45.983Z,38.10
2018-09-06T13:02:14.395Z,37.60
2018-09-06T13:04:49.522Z,37.50
2018-09-06T13:07:17.894Z,37.50
2018-09-06T13:09:46.206Z,36.50
2018-09-06T13:12:14.549Z,36.60
2018-09-06T13:17:17.622Z,37.50
2018-09-06T13:19:45.935Z,36.20
2018-09-06T13:22:14.282Z,36.00
2018-09-06T13:24:42.591Z,35.40
2018-09-06T13:27:10.981Z,35.30
2018-09-06T13:29:39.249Z,35.70
2018-09-06T13:32:07.580Z,35.60
2018-09-06T13:34:35.889Z,35.50
2018-09-06T13:37:04.220Z,35.60
2018-09-06T13:39:32.536Z,34.90
2018-09-06T13:42:00.879Z,34.20
2018-09-06T13:44:29.206Z,34.50
2018-09-06T13:46:57.575Z,34.60
2018-09-06T13:49:25.897Z,34.40
2018-09-06T13:51:54.247Z,34.10
2018-09-06T13:54:22.562Z,33.80
2018-09-06T13:56:50.889Z,34.80
2018-09-06T13:59:19.251Z,34.10
2018-09-06T14:01:47.592Z,34.10
2018-09-06T14:04:15.909Z,33.90
2018-09-06T14:06:44.241Z,33.60
2018-09-06T14:09:12.569Z,34.00
2018-09-06T14:11:40.897Z,34.10
2018-09-06T14:14:09.219Z,33.90
2018-09-06T14:16:37.659Z,34.80
2018-09-06T14:19:05.942Z,34.00
2018-09-06T14:21:34.403Z,34.10
2018-09-06T14:24:02.749Z,33.70
2018-09-06T14:26:31.106Z,34.00
2018-09-06T14:28:59.427Z,34.30
2018-09-06T14:31:27.801Z,34.20
2018-09-06T14:34:03.052Z,34.30
2018-09-06T14:36:31.424Z,34.80
2018-09-06T14:38:59.914Z,34.70
2018-09-06T14:41:28.249Z,34.60
2018-09-06T14:43:56.586Z,34.20
2018-09-06T14:46:24.914Z,33.80
2018-09-06T14:48:53.250Z,34.20
2018-09-06T14:51:21.568Z,34.20
2018-09-06T14:53:49.901Z,33.90
2018-09-06T14:56:18.215Z,34.30
2018-09-06T14:58:46.553Z,34.20
2018-09-06T15:01:14.858Z,34.50
2018-09-06T15:03:43.197Z,34.70
2018-09-06T15:06:11.502Z,34.70
2018-09-06T15:08:39.845Z,34.70
2018-09-06T15:11:08.153Z,34.90
2018-09-06T15:13:36.551Z,34.90
2018-09-06T15:16:04.846Z,35.10
2018-09-06T15:18:33.169Z,35.20
2018-09-06T15:21:01.486Z,35.40
2018-09-06T15:23:29.926Z,35.10
2018-09-06T15:25:58.268Z,35.20
2018-09-06T15:28:26.590Z,35.30
2018-09-06T15:30:54.897Z,35.70
2018-09-06T15:33:23.252Z,36.10
2018-09-06T15:35:51.596Z,36.30
2018-09-06T15:38:19.947Z,36.70
2018-09-06T15:40:48.272Z,37.60
2018-09-06T15:43:16.614Z,37.90
2018-09-06T15:45:44.963Z,37.30
2018-09-06T15:48:13.329Z,36.80
2018-09-06T15:50:41.653Z,36.80
2018-09-06T15:53:10.278Z,36.80
2018-09-06T15:55:38.724Z,37.40
2018-09-06T15:58:07.050Z,38.00
2018-09-06T16:00:35.366Z,37.80
2018-09-06T16:03:03.708Z,37.60
2018-09-06T16:05:32.034Z,37.40
2018-09-06T16:08:00.407Z,37.50
2018-09-06T16:10:28.756Z,37.70
2018-09-06T16:12:57.125Z,38.20
2018-09-06T16:15:25.459Z,38.20
2018-09-06T16:17:53.794Z,38.40
2018-09-06T16:20:22.112Z,38.70
2018-09-06T16:22:50.458Z,39.00
2018-09-06T16:25:18.772Z,38.70
2018-09-06T16:27:47.110Z,38.90
2018-09-06T16:30:15.520Z,39.00
2018-09-06T16:32:43.833Z,39.40
2018-09-06T16:35:12.838Z,39.90
2018-09-06T16:37:41.176Z,40.60
2018-09-06T16:40:09.511Z,40.70
2018-09-06T16:42:37.870Z,40.80
2018-09-06T16:45:06.173Z,41.10
2018-09-06T16:47:34.501Z,41.60
2018-09-06T16:50:02.809Z,42.20
2018-09-06T16:52:31.274Z,42.30
2018-09-06T16:54:59.557Z,42.30
2018-09-06T16:57:27.910Z,42.50
2018-09-06T16:59:56.260Z,43.50
2018-09-06T17:02:24.580Z,43.40
2018-09-06T17:04:52.918Z,43.60
2018-09-06T17:07:21.253Z,43.90
2018-09-06T17:09:49.599Z,44.30
2018-09-06T17:12:17.927Z,44.40
2018-09-06T17:14:46.277Z,45.00
2018-09-06T17:17:14.627Z,45.40
2018-09-06T17:19:42.957Z,45.70
2018-09-06T17:22:11.274Z,46.10
2018-09-06T17:24:39.607Z,46.30
2018-09-06T17:27:07.930Z,46.30
2018-09-06T17:29:36.261Z,46.20
2018-09-06T17:32:04.653Z,46.60
2018-09-06T17:34:32.949Z,46.30
2018-09-06T17:37:01.274Z,46.60
2018-09-06T17:39:29.631Z,46.50
2018-09-06T17:41:57.987Z,46.00
2018-09-06T17:44:26.340Z,46.10
2018-09-06T17:46:54.649Z,45.80
2018-09-06T17:49:23.009Z,45.80
2018-09-06T17:51:51.338Z,45.90
2018-09-06T17:54:19.709Z,46.00
2018-09-06T17:56:48.085Z,46.10
2018-09-06T17:59:16.469Z,46.60
2018-09-06T18:01:44.805Z,46.80
2018-09-06T18:04:13.142Z,46.80
2018-09-06T18:06:41.486Z,46.80
2018-09-06T18:09:11.241Z,46.70
2018-09-06T18:11:40.027Z,46.80
2018-09-06T18:14:08.428Z,46.80
2018-09-06T18:16:36.794Z,47.00
2018-09-06T18:19:05.189Z,46.90
2018-09-06T18:21:33.541Z,47.00
2018-09-06T18:24:02.019Z,47.00
2018-09-06T18:26:30.394Z,47.00
2018-09-06T18:28:59.066Z,47.00
2018-09-06T18:31:27.438Z,47.10
2018-09-06T18:33:55.819Z,47.00
2018-09-06T18:36:24.137Z,46.90
2018-09-06T18:38:52.493Z,46.90
2018-09-06T18:41:20.805Z,46.50
2018-09-06T18:43:49.140Z,46.50
2018-09-06T18:46:17.541Z,46.30
2018-09-06T18:48:45.911Z,46.60
2018-09-06T18:51:14.238Z,47.10
2018-09-06T18:53:42.703Z,46.60
2018-09-06T18:56:11.063Z,46.80
2018-09-06T18:58:39.432Z,47.10
2018-09-06T19:01:07.765Z,47.60
2018-09-06T19:03:36.147Z,47.90
2018-09-06T19:06:04.478Z,48.00
2018-09-06T19:08:32.823Z,48.20
2018-09-06T19:11:01.223Z,48.40
2018-09-06T19:13:29.573Z,48.00
2018-09-06T19:15:57.927Z,47.70
2018-09-06T19:18:26.257Z,47.60
2018-09-06T19:20:55.233Z,47.60
2018-09-06T19:23:23.581Z,47.70
2018-09-06T19:25:51.918Z,47.70
2018-09-06T19:28:20.245Z,47.80
2018-09-06T19:30:48.603Z,47.60
2018-09-06T19:33:16.969Z,47.70
2018-09-06T19:35:45.309Z,47.50
2018-09-06T19:38:13.871Z,47.40
2018-09-06T19:40:42.244Z,47.70
2018-09-06T19:43:10.700Z,48.10
2018-09-06T19:45:39.162Z,48.30
2018-09-06T19:48:07.478Z,48.60
2018-09-06T19:50:35.810Z,48.50
2018-09-06T19:53:04.122Z,47.90
2018-09-06T19:55:32.463Z,48.00
2018-09-06T19:58:00.785Z,48.10
2018-09-06T20:00:29.148Z,48.20
2018-09-06T20:02:57.512Z,48.30
2018-09-06T20:05:25.854Z,48.70
2018-09-06T20:07:54.243Z,48.90
2018-09-06T20:10:22.546Z,49.20
2018-09-06T20:12:51.434Z,49.60
2018-09-06T20:15:19.838Z,49.70
2018-09-06T20:17:48.438Z,49.90
2018-09-06T20:20:16.799Z,50.80
2018-09-06T20:22:45.120Z,51.30
2018-09-06T20:25:13.467Z,52.20
2018-09-06T20:27:48.421Z,53.10
2018-09-06T20:30:16.750Z,54.20
2018-09-06T20:32:45.057Z,55.30
2018-09-06T20:35:13.395Z,55.80
2018-09-06T20:37:41.705Z,56.50
2018-09-06T20:40:10.041Z,57.50
2018-09-06T20:42:38.365Z,58.20
2018-09-06T20:45:06.765Z,58.80
2018-09-06T20:47:35.066Z,59.10
2018-09-06T20:50:03.494Z,59.40
2018-09-06T20:52:31.821Z,61.60
2018-09-06T20:55:00.184Z,62.40
2018-09-06T20:57:28.523Z,63.50
2018-09-06T20:59:56.882Z,64.40
2018-09-06T21:02:25.767Z,65.10
2018-09-06T21:04:54.692Z,65.50
2018-09-06T21:07:23.380Z,66.50
2018-09-06T21:09:51.724Z,66.80
2018-09-06T21:12:20.045Z,67.30
2018-09-06T21:14:48.381Z,67.50
2018-09-06T21:17:16.702Z,68.10
2018-09-06T21:19:45.070Z,68.30
2018-09-06T21:22:13.390Z,69.10
2018-09-06T21:24:41.750Z,69.40
2018-09-06T21:27:10.071Z,69.90
2018-09-06T21:29:38.404Z,70.20
2018-09-06T21:32:06.755Z,70.80
2018-09-06T21:34:35.474Z,70.60
2018-09-06T21:37:03.827Z,70.40
2018-09-06T21:39:32.137Z,70.40
2018-09-06T21:42:00.468Z,70.30
2018-09-06T21:44:28.794Z,70.40
2018-09-06T21:46:57.128Z,70.20
2018-09-06T21:49:25.448Z,70.00
2018-09-06T21:51:53.943Z,70.00
2018-09-06T21:54:22.261Z,69.90
2018-09-06T21:56:50.593Z,69.60
2018-09-06T21:59:18.906Z,69.70
2018-09-06T22:01:50.133Z,69.80
2018-09-06T22:04:19.028Z,70.00
2018-09-06T22:06:47.362Z,70.30
2018-09-06T22:09:15.697Z,70.80
2018-09-06T22:11:45.102Z,71.30
2018-09-06T22:14:13.409Z,71.90
2018-09-06T22:16:41.741Z,72.30
2018-09-06T22:19:10.067Z,72.60
2018-09-06T22:21:38.430Z,72.80
2018-09-06T22:24:06.761Z,72.90
2018-09-06T22:26:35.098Z,73.20
2018-09-06T22:29:03.401Z,73.40
2018-09-06T22:31:31.730Z,73.50
2018-09-06T22:34:00.046Z,73.60
2018-09-06T22:36:28.408Z,73.90
2018-09-06T22:38:56.725Z,74.10
2018-09-06T22:41:25.078Z,74.20
2018-09-06T22:43:53.410Z,74.30
2018-09-06T22:46:21.769Z,74.60
2018-09-06T22:48:50.147Z,75.00
2018-09-06T22:51:18.445Z,75.20
2018-09-06T22:53:46.779Z,75.60
2018-09-06T22:56:15.117Z,75.80
2018-09-06T22:58:43.424Z,76.10
2018-09-06T23:01:11.747Z,76.10
2018-09-06T23:03:42.276Z,76.30
2018-09-06T23:06:10.608Z,76.70
2018-09-06T23:08:38.957Z,77.20
2018-09-06T23:11:07.284Z,77.10
2018-09-06T23:13:35.595Z,77.40
2018-09-06T23:16:03.939Z,77.70
2018-09-06T23:18:32.265Z,78.70
2018-09-06T23:21:00.610Z,78.10
2018-09-06T23:23:28.928Z,78.40
2018-09-06T23:25:57.274Z,78.70
2018-09-06T23:28:25.590Z,78.90
2018-09-06T23:30:53.926Z,79.30
2018-09-06T23:33:22.304Z,79.50
2018-09-06T23:35:50.628Z,79.80
2018-09-06T23:38:19.637Z,79.60
2018-09-06T23:40:54.505Z,79.80
2018-09-06T23:43:23.930Z,79.50
2018-09-06T23:45:54.295Z,80.00
2018-09-06T23:48:24.623Z,80.50
2018-09-06T23:50:53.758Z,80.40
2018-09-06T23:53:22.076Z,80.40
2018-09-06T23:55:50.400Z,80.40
2018-09-06T23:58:19.070Z,80.50
